createdAt,value
2018-04-14T00:00:07.238Z,41.63
2018-04-14T00:03:12.877Z,31.77
2018-04-14T00:06:18.794Z,35.23
2018-04-14T00:09:24.077Z,34.23
2018-04-14T00:12:30.265Z,31.07
2018-04-14T00:15:36.120Z,32.47
2018-04-14T00:18:41.393Z,29.97
2018-04-14T00:21:47.262Z,39.73
2018-04-14T00:24:52.577Z,33.63
2018-04-14T00:27:57.857Z,35.37
2018-04-14T00:31:04.050Z,31.87
2018-04-14T00:34:09.335Z,30.33
2018-04-14T00:37:15.526Z,30.53
2018-04-14T00:40:21.740Z,33.27
2018-04-14T00:43:27.917Z,35.93
2018-04-14T00:46:33.199Z,29.60
2018-04-14T00:49:38.213Z,33.83
2018-04-14T00:52:43.482Z,29.53
2018-04-14T00:55:48.529Z,29.60
2018-04-14T00:58:53.799Z,35.33
2018-04-14T01:01:59.082Z,32.60
2018-04-14T01:05:04.129Z,31.37
2018-04-14T01:08:09.835Z,34.77
2018-04-14T01:11:16.041Z,37.53
2018-04-14T01:14:21.037Z,32.83
2018-04-14T01:17:27.213Z,40.73
2018-04-14T01:20:33.401Z,31.03
2018-04-14T01:23:38.399Z,36.20
2018-04-14T01:26:43.673Z,32.40
2018-04-14T01:29:48.961Z,29.90
2018-04-14T01:32:54.238Z,30.67
2018-04-14T01:35:59.519Z,37.43
2018-04-14T01:39:04.014Z,37.83
2018-04-14T01:42:10.594Z,33.60
2018-04-14T01:45:15.897Z,32.83
2018-04-14T01:48:22.127Z,32.53
2018-04-14T01:51:27.409Z,36.27
2018-04-14T01:54:32.719Z,29.13
2018-04-14T01:57:38.904Z,41.70
2018-04-14T02:00:45.190Z,42.47
2018-04-14T02:03:50.980Z,32.77
2018-04-14T02:06:58.022Z,45.17
2018-04-14T02:10:03.104Z,40.87
2018-04-14T02:13:08.313Z,39.67
2018-04-14T02:16:15.118Z,37.50
2018-04-14T02:19:20.386Z,40.03
2018-04-14T02:22:26.457Z,40.97
2018-04-14T02:25:32.361Z,48.60
2018-04-14T02:28:38.490Z,48.40
2018-04-14T02:31:43.706Z,47.57
2018-04-14T02:34:49.153Z,54.60
2018-04-14T02:37:55.098Z,49.33
2018-04-14T02:41:00.309Z,48.80
2018-04-14T02:44:05.670Z,56.80
2018-04-14T02:47:11.530Z,53.37
2018-04-14T02:50:16.736Z,53.37
2018-04-14T02:53:21.955Z,57.83
2018-04-14T02:56:27.170Z,52.13
2018-04-14T02:59:33.201Z,54.23
2018-04-14T03:02:39.329Z,48.13
2018-04-14T03:05:44.557Z,57.57
2018-04-14T03:08:49.769Z,50.93
2018-04-14T03:11:55.915Z,51.17
2018-04-14T03:15:02.059Z,54.87
2018-04-14T03:18:08.099Z,53.10
2018-04-14T03:21:13.517Z,48.50
2018-04-14T03:24:19.149Z,50.27
2018-04-14T03:27:24.359Z,55.33
2018-04-14T03:30:29.605Z,55.50
2018-04-14T03:33:35.000Z,50.40
2018-04-14T03:36:40.233Z,47.00
2018-04-14T03:39:46.361Z,44.27
2018-04-14T03:42:51.997Z,49.13
2018-04-14T03:45:57.205Z,39.80
2018-04-14T03:49:03.366Z,41.67
2018-04-14T03:52:10.033Z,40.97
2018-04-14T03:55:15.662Z,40.10
2018-04-14T03:58:20.861Z,33.33
2018-04-14T04:01:26.498Z,28.60
2018-04-14T04:04:31.657Z,28.10
2018-04-14T04:07:36.872Z,29.63
2018-04-14T04:10:42.096Z,25.50
2018-04-14T04:13:47.368Z,24.17
2018-04-14T04:16:52.170Z,24.73
2018-04-14T04:20:09.272Z,26.60
2018-04-14T04:23:26.053Z,20.63
2018-04-14T04:26:33.250Z,19.23
2018-04-14T04:29:37.899Z,18.40
2018-04-14T04:32:42.849Z,23.83
2018-04-14T04:35:48.340Z,18.63
2018-04-14T04:38:53.813Z,19.30
2018-04-14T04:41:59.274Z,14.00
2018-04-14T04:45:04.062Z,13.73
2018-04-14T04:48:09.572Z,11.10
2018-04-14T04:51:14.213Z,12.97
2018-04-14T04:54:19.408Z,10.23
2018-04-14T04:57:24.053Z,9.40
2018-04-14T05:00:29.418Z,8.50
2018-04-14T05:03:34.567Z,8.70
2018-04-14T05:06:39.609Z,7.97
2018-04-14T05:09:44.786Z,9.40
2018-04-14T05:12:50.259Z,5.90
2018-04-14T05:15:55.406Z,6.50
2018-04-14T05:19:01.465Z,6.90
2018-04-14T05:22:06.713Z,6.10
2018-04-14T05:25:11.774Z,5.60
2018-04-14T05:28:16.939Z,4.33
2018-04-14T05:31:21.990Z,4.57
2018-04-14T05:34:27.145Z,4.97
2018-04-14T05:37:32.686Z,3.87
2018-04-14T05:40:37.473Z,3.43
2018-04-14T05:43:42.840Z,3.63
2018-04-14T05:46:47.672Z,3.60
2018-04-14T05:49:53.238Z,3.40
2018-04-14T05:52:57.888Z,2.60
2018-04-14T05:56:03.244Z,3.43
2018-04-14T05:59:08.393Z,3.30
2018-04-14T06:02:13.214Z,2.90
2018-04-14T06:05:19.680Z,2.30
2018-04-14T06:08:24.928Z,3.03
2018-04-14T06:11:30.590Z,2.87
2018-04-14T06:14:35.849Z,2.90
2018-04-14T06:17:41.005Z,2.70
2018-04-14T06:20:46.597Z,3.00
2018-04-14T06:23:51.260Z,5.80
2018-04-14T06:26:57.714Z,3.67
2018-04-14T06:30:02.784Z,3.37
2018-04-14T06:33:07.934Z,3.93
2018-04-14T06:36:14.085Z,3.67
2018-04-14T06:39:20.450Z,3.90
2018-04-14T06:42:25.701Z,3.93
2018-04-14T06:45:31.756Z,3.20
2018-04-14T06:48:37.018Z,3.73
2018-04-14T06:51:42.286Z,6.60
2018-04-14T06:54:47.652Z,3.50
2018-04-14T06:57:52.904Z,5.13
2018-04-14T07:00:58.253Z,3.70
2018-04-14T07:04:02.889Z,4.53
2018-04-14T07:07:08.111Z,4.97
2018-04-14T07:10:13.427Z,3.53
2018-04-14T07:13:18.949Z,5.30
2018-04-14T07:16:23.789Z,4.63
2018-04-14T07:19:28.451Z,5.50
2018-04-14T07:22:33.933Z,5.63
2018-04-14T07:25:40.309Z,3.67
2018-04-14T07:28:45.570Z,8.50
2018-04-14T07:31:50.633Z,7.37
2018-04-14T07:34:55.842Z,4.90
2018-04-14T07:38:00.994Z,4.63
2018-04-14T07:41:07.104Z,6.73
2018-04-14T07:44:11.743Z,3.80
2018-04-14T07:47:17.193Z,5.40
2018-04-14T07:50:21.820Z,4.70
2018-04-14T07:53:26.476Z,7.50
2018-04-14T07:56:31.635Z,7.80
2018-04-14T07:59:36.749Z,5.53
2018-04-14T08:02:42.117Z,6.63
2018-04-14T08:05:46.760Z,6.67
2018-04-14T08:08:52.090Z,5.50
2018-04-14T08:11:57.138Z,5.03
2018-04-14T08:15:02.294Z,5.40
2018-04-14T08:18:08.445Z,5.90
2018-04-14T08:21:13.702Z,6.17
2018-04-14T08:24:18.885Z,10.37
2018-04-14T08:27:23.513Z,6.97
2018-04-14T08:30:29.639Z,5.47
2018-04-14T08:33:34.261Z,4.20
2018-04-14T08:36:40.529Z,6.90
2018-04-14T08:39:45.568Z,6.60
2018-04-14T08:42:50.830Z,5.33
2018-04-14T08:45:55.662Z,8.40
2018-04-14T08:49:01.838Z,8.20
2018-04-14T08:52:07.120Z,5.57
2018-04-14T08:55:13.171Z,6.47
2018-04-14T08:58:18.224Z,6.00
2018-04-14T09:01:23.873Z,5.40
2018-04-14T09:04:30.088Z,5.07
2018-04-14T09:07:34.729Z,6.40
2018-04-14T09:10:41.241Z,5.57
2018-04-14T09:13:45.864Z,9.40
2018-04-14T09:16:51.241Z,5.17
2018-04-14T09:19:56.960Z,7.53
2018-04-14T09:23:02.964Z,4.67
2018-04-14T09:26:08.810Z,5.63
2018-04-14T09:29:14.003Z,4.33
2018-04-14T09:32:20.149Z,6.13
2018-04-14T09:35:26.101Z,7.93
2018-04-14T09:38:31.025Z,7.33
2018-04-14T09:41:36.228Z,7.33
2018-04-14T09:44:41.414Z,9.00
2018-04-14T09:47:47.530Z,10.47
2018-04-14T09:50:53.169Z,7.73
2018-04-14T09:53:59.172Z,7.67
2018-04-14T09:57:04.372Z,6.53
2018-04-14T10:00:09.336Z,7.27
2018-04-14T10:03:20.127Z,8.50
2018-04-14T10:06:25.944Z,7.80
2018-04-14T10:09:32.051Z,9.80
2018-04-14T10:12:38.159Z,10.50
2018-04-14T10:15:43.507Z,12.23
2018-04-14T10:18:49.641Z,8.27
2018-04-14T10:21:55.265Z,6.40
2018-04-14T10:25:00.468Z,7.57
2018-04-14T10:28:05.346Z,7.20
2018-04-14T10:31:11.581Z,12.20
2018-04-14T10:34:17.193Z,12.20
2018-04-14T10:37:22.408Z,7.37
2018-04-14T10:40:28.228Z,10.83
2018-04-14T10:43:34.440Z,9.00
2018-04-14T10:46:40.545Z,6.30
2018-04-14T10:49:46.484Z,7.43
2018-04-14T10:52:52.500Z,5.30
2018-04-14T10:55:57.696Z,4.63
2018-04-14T10:59:03.816Z,6.10
2018-04-14T11:02:09.435Z,6.83
2018-04-14T11:05:15.489Z,5.10
2018-04-14T11:08:20.664Z,3.87
2018-04-14T11:11:25.871Z,4.10
2018-04-14T11:14:31.980Z,4.50
2018-04-14T11:17:38.013Z,3.73
2018-04-14T11:20:43.954Z,4.00
2018-04-14T11:23:50.081Z,5.27
2018-04-14T11:26:56.093Z,2.97
2018-04-14T11:30:02.194Z,2.93
2018-04-14T11:33:08.319Z,3.00
2018-04-14T11:36:13.505Z,2.40
2018-04-14T11:39:19.133Z,3.23
2018-04-14T11:42:25.162Z,3.00
2018-04-14T11:45:31.258Z,2.80
2018-04-14T11:48:37.397Z,2.70
2018-04-14T11:51:43.529Z,3.10
2018-04-14T11:54:49.585Z,3.03
2018-04-14T11:57:55.277Z,3.10
2018-04-14T12:01:01.202Z,3.37
2018-04-14T12:04:06.794Z,3.27
2018-04-14T12:07:12.545Z,3.93
2018-04-14T12:10:18.597Z,3.23
2018-04-14T12:13:23.786Z,4.23
2018-04-14T12:16:28.982Z,3.27
2018-04-14T12:19:34.169Z,2.53
2018-04-14T12:22:39.387Z,2.60
2018-04-14T12:25:44.777Z,2.67
2018-04-14T12:28:51.197Z,3.27
2018-04-14T12:31:57.008Z,2.90
2018-04-14T12:35:02.223Z,3.67
2018-04-14T12:38:07.404Z,3.27
2018-04-14T12:41:13.509Z,3.97
2018-04-14T12:44:18.718Z,2.90
2018-04-14T12:47:23.900Z,3.13
2018-04-14T12:50:30.035Z,2.73
2018-04-14T12:53:35.225Z,2.77
2018-04-14T12:56:41.007Z,3.33
2018-04-14T12:59:47.121Z,2.97
2018-04-14T13:02:52.505Z,2.40
2018-04-14T13:05:58.572Z,2.80
2018-04-14T13:09:03.336Z,3.20
2018-04-14T13:12:09.136Z,2.47
2018-04-14T13:15:14.869Z,2.80
2018-04-14T13:18:20.963Z,3.27
2018-04-14T13:21:26.621Z,3.37
2018-04-14T13:24:32.738Z,3.97
2018-04-14T13:27:38.332Z,4.10
2018-04-14T13:30:44.162Z,9.57
2018-04-14T13:33:50.066Z,5.70
2018-04-14T13:36:55.748Z,6.03
2018-04-14T13:40:01.869Z,6.70
2018-04-14T13:43:07.873Z,5.67
2018-04-14T13:46:12.851Z,6.43
2018-04-14T13:49:18.971Z,5.30
2018-04-14T13:52:24.597Z,6.60
2018-04-14T13:55:30.506Z,8.27
2018-04-14T13:58:36.278Z,9.40
2018-04-14T14:01:41.481Z,8.97
2018-04-14T14:04:46.673Z,7.97
2018-04-14T14:07:52.796Z,8.77
2018-04-14T14:10:58.412Z,10.03
2018-04-14T14:14:03.977Z,14.90
2018-04-14T14:17:09.637Z,37.37
2018-04-14T14:20:15.029Z,32.37
2018-04-14T14:23:20.241Z,22.73
2018-04-14T14:26:25.454Z,20.73
2018-04-14T14:29:31.086Z,15.67
2018-04-14T14:32:36.293Z,17.10
2018-04-14T14:35:41.508Z,15.17
2018-04-14T14:38:46.734Z,13.53
2018-04-14T14:41:52.851Z,14.43
2018-04-14T14:44:58.276Z,16.10
2018-04-14T14:48:03.896Z,14.00
2018-04-14T14:51:09.720Z,14.70
2018-04-14T14:54:15.760Z,17.50
2018-04-14T14:57:20.981Z,21.03
2018-04-14T15:00:26.185Z,20.73
2018-04-14T15:03:31.399Z,16.57
2018-04-14T15:06:37.542Z,14.40
2018-04-14T15:09:43.170Z,13.43
2018-04-14T15:12:48.394Z,17.33
2018-04-14T15:15:54.505Z,15.83
2018-04-14T15:19:00.136Z,15.13
2018-04-14T15:22:06.250Z,14.97
2018-04-14T15:25:12.451Z,15.00
2018-04-14T15:28:18.423Z,19.40
2018-04-14T15:31:23.638Z,19.23
2018-04-14T15:34:29.769Z,17.60
2018-04-14T15:37:35.380Z,19.83
2018-04-14T15:40:41.201Z,20.40
2018-04-14T15:43:46.433Z,19.07
2018-04-14T15:46:51.641Z,21.00
2018-04-14T15:49:57.434Z,25.20
2018-04-14T15:53:02.645Z,21.53
2018-04-14T15:56:07.763Z,21.80
2018-04-14T15:59:13.884Z,28.13
2018-04-14T16:02:19.523Z,21.83
2018-04-14T16:05:25.457Z,23.80
2018-04-14T16:08:31.395Z,18.80
2018-04-14T16:11:37.090Z,20.77
2018-04-14T16:14:43.243Z,20.57
2018-04-14T16:17:49.379Z,24.93
2018-04-14T16:20:54.989Z,28.13
2018-04-14T16:24:01.121Z,25.27
2018-04-14T16:27:07.243Z,25.23
2018-04-14T16:30:14.061Z,29.90
2018-04-14T16:33:19.416Z,23.57
2018-04-14T16:36:25.245Z,27.03
2018-04-14T16:39:31.386Z,28.23
2018-04-14T16:42:37.501Z,26.03
2018-04-14T16:45:42.507Z,27.33
2018-04-14T16:48:48.204Z,36.87
2018-04-14T16:51:53.932Z,31.27
2018-04-14T16:54:59.196Z,37.03
2018-04-14T16:58:04.553Z,33.80
2018-04-14T17:01:10.592Z,31.90
2018-04-14T17:04:16.730Z,42.33
2018-04-14T17:07:22.860Z,36.50
2018-04-14T17:10:28.492Z,37.43
2018-04-14T17:13:34.280Z,35.67
2018-04-14T17:16:39.485Z,42.10
2018-04-14T17:19:46.552Z,42.50
2018-04-14T17:22:52.199Z,41.63
2018-04-14T17:25:57.417Z,47.10
2018-04-14T17:29:02.637Z,43.27
2018-04-14T17:32:07.577Z,41.53
2018-04-14T17:35:14.140Z,48.03
2018-04-14T17:38:20.693Z,42.30
2018-04-14T17:41:27.239Z,42.67
2018-04-14T17:44:32.896Z,51.03
2018-04-14T17:47:38.810Z,46.20
2018-04-14T17:50:44.957Z,42.87
2018-04-14T17:53:50.797Z,51.53
2018-04-14T17:56:56.942Z,54.13
2018-04-14T18:00:02.741Z,57.57
2018-04-14T18:03:07.717Z,55.30
2018-04-14T18:06:12.945Z,51.77
2018-04-14T18:09:18.671Z,48.97
2018-04-14T18:12:24.721Z,50.93
2018-04-14T18:15:31.761Z,47.20
2018-04-14T18:18:37.606Z,47.07
2018-04-14T18:21:43.655Z,47.20
2018-04-14T18:24:49.681Z,51.87
2018-04-14T18:27:55.805Z,51.70
2018-04-14T18:31:01.740Z,47.83
2018-04-14T18:34:06.957Z,49.60
2018-04-14T18:37:12.179Z,54.40
2018-04-14T18:40:18.604Z,53.07
2018-04-14T18:43:24.397Z,53.67
2018-04-14T18:46:29.333Z,53.13
2018-04-14T18:49:34.536Z,51.13
2018-04-14T18:52:39.762Z,46.47
2018-04-14T18:55:45.482Z,51.47
2018-04-14T18:58:51.698Z,50.10
2018-04-14T19:01:57.517Z,51.10
2018-04-14T19:05:03.158Z,43.53
2018-04-14T19:08:09.290Z,53.60
2018-04-14T19:11:14.521Z,50.23
2018-04-14T19:14:19.754Z,48.13
2018-04-14T19:17:25.374Z,47.40
2018-04-14T19:20:30.590Z,62.30
2018-04-14T19:23:36.209Z,58.70
2018-04-14T19:26:41.426Z,52.13
2018-04-14T19:29:46.825Z,54.97
2018-04-14T19:32:52.058Z,52.97
2018-04-14T19:35:57.504Z,48.47
2018-04-14T19:39:03.393Z,49.40
2018-04-14T19:42:08.313Z,50.13
2018-04-14T19:45:13.544Z,52.00
2018-04-14T19:48:19.173Z,51.53
2018-04-14T19:51:25.002Z,49.87
2018-04-14T19:54:31.093Z,50.10
2018-04-14T19:57:37.292Z,49.67
2018-04-14T20:00:42.734Z,60.53
2018-04-14T20:03:48.647Z,60.27
2018-04-14T20:06:56.317Z,54.53
2018-04-14T20:10:02.150Z,82.30
2018-04-14T20:13:07.369Z,79.70
2018-04-14T20:16:12.601Z,63.40
2018-04-14T20:19:18.281Z,64.10
2018-04-14T20:22:23.499Z,55.57
2018-04-14T20:25:29.153Z,62.80
2018-04-14T20:28:34.353Z,58.90
2018-04-14T20:31:40.090Z,51.20
2018-04-14T20:34:45.288Z,51.57
2018-04-14T20:37:51.417Z,63.20
2018-04-14T20:40:57.076Z,52.50
2018-04-14T20:44:02.482Z,53.57
2018-04-14T20:47:08.496Z,52.27
2018-04-14T20:50:14.433Z,59.57
2018-04-14T20:53:20.353Z,55.00
2018-04-14T20:56:26.369Z,59.47
2018-04-14T20:59:32.509Z,57.70
2018-04-14T21:02:38.561Z,54.07
2018-04-14T21:05:44.709Z,55.77
2018-04-14T21:08:50.846Z,54.37
2018-04-14T21:11:56.970Z,54.70
2018-04-14T21:15:02.600Z,55.37
2018-04-14T21:18:07.545Z,57.33
2018-04-14T21:21:13.381Z,59.97
2018-04-14T21:24:19.420Z,59.80
2018-04-14T21:27:24.621Z,55.73
2018-04-14T21:30:30.358Z,53.20
2018-04-14T21:33:35.288Z,59.57
2018-04-14T21:36:40.513Z,55.90
2018-04-14T21:39:45.730Z,60.90
2018-04-14T21:42:51.466Z,57.97
2018-04-14T21:45:56.679Z,62.53
2018-04-14T21:49:02.221Z,60.63
2018-04-14T21:52:07.969Z,61.93
2018-04-14T21:55:13.208Z,55.07
2018-04-14T21:58:18.413Z,58.80
2018-04-14T22:01:23.621Z,48.47
2018-04-14T22:04:28.834Z,51.90
2018-04-14T22:07:34.897Z,60.00
2018-04-14T22:10:40.829Z,56.60
2018-04-14T22:13:46.784Z,55.90
2018-04-14T22:16:51.978Z,56.57
2018-04-14T22:19:58.141Z,55.27
2018-04-14T22:23:03.345Z,56.63
2018-04-14T22:26:09.177Z,53.50
2018-04-14T22:29:14.389Z,59.63
2018-04-14T22:32:20.150Z,51.60
2018-04-14T22:35:26.205Z,52.93
2018-04-14T22:38:31.423Z,53.43
2018-04-14T22:41:37.383Z,58.80
2018-04-14T22:44:43.476Z,57.63
2018-04-14T22:47:48.424Z,58.07
2018-04-14T22:50:54.159Z,56.80
2018-04-14T22:53:59.365Z,54.70
2018-04-14T22:57:05.011Z,54.57
2018-04-14T23:00:09.895Z,52.00
2018-04-14T23:03:14.951Z,65.60
2018-04-14T23:06:21.701Z,57.80
2018-04-14T23:09:27.338Z,59.37
2018-04-14T23:12:33.481Z,56.10
2018-04-14T23:15:39.321Z,55.97
2018-04-14T23:18:45.333Z,60.80
2018-04-14T23:21:50.234Z,51.27
2018-04-14T23:24:55.109Z,48.60
2018-04-14T23:28:00.781Z,55.37
2018-04-14T23:31:06.958Z,52.77
2018-04-14T23:34:12.880Z,51.97
2018-04-14T23:37:18.105Z,55.60
2018-04-14T23:40:23.732Z,54.03
2018-04-14T23:43:28.938Z,48.00
2018-04-14T23:46:34.157Z,51.10
2018-04-14T23:49:39.374Z,48.77
2018-04-14T23:52:45.497Z,56.97
2018-04-14T23:55:51.402Z,49.50
2018-04-14T23:58:57.137Z,62.87
